Time;durP1;ratioP1;P1;durP2;ratioP2;P2;SDS_P1;SDS_P2;PMS_P1;PMS_P2;Temp;Humidity;BMP_temperature;BMP_pressure;BME280_temperature;BME280_humidity;BME280_pressure;Samples;Min_cycle;Max_cycle;Signal;HPM_P1;HPM_P2
2022/02/02 00:01:14;;;;;;;4.05;2.05;;;;;;;;;;6255942;23;20040;-96
2022/02/02 00:03:50;;;;;;;4.78;1.83;;;;;;;;;;6258832;23;20004;-96
2022/02/02 00:06:40;;;;;;;2.87;2.57;;;;;;;;;;5598410;23;15311738;-96
2022/02/02 00:09:17;;;;;;;5.70;1.73;;;;;;;;;;6262378;23;20000;-96
2022/02/02 00:15:00;;;;;;;3.05;1.92;;;;;;;;;;6260663;23;20016;-96
2022/02/02 00:18:11;;;;;;;2.47;1.13;;;;;;;;;;6257090;23;20004;-96
2022/02/02 00:21:02;;;;;;;0.90;0.85;;;;;;;;;;6256706;22;20447;-96
2022/02/02 00:23:34;;;;;;;1.17;1.05;;;;;;;;;;6256794;22;20015;-95
2022/02/02 00:26:13;;;;;;;1.45;0.88;;;;;;;;;;6259552;23;20450;-96
2022/02/02 00:28:46;;;;;;;2.22;1.45;;;;;;;;;;6261339;23;20010;-96
2022/02/02 00:31:21;;;;;;;7.25;3.15;;;;;;;;;;6260557;23;20038;-96
2022/02/02 00:33:58;;;;;;;2.28;1.38;;;;;;;;;;6259610;23;20027;-96
2022/02/02 00:36:31;;;;;;;1.80;1.05;;;;;;;;;;6259103;23;20000;-96
2022/02/02 00:38:58;;;;;;;2.65;2.20;;;;;;;;;;6258893;23;20439;-96
2022/02/02 00:41:33;;;;;;;1.88;1.50;;;;;;;;;;6231882;23;20004;-96
2022/02/02 00:44:19;;;;;;;5.85;2.28;;;;;;;;;;6258865;23;20004;-95
2022/02/02 00:46:48;;;;;;;1.92;1.73;;;;;;;;;;6231764;23;20000;-96
2022/02/02 00:49:25;;;;;;;2.17;1.65;;;;;;;;;;6231850;23;20004;-96
2022/02/02 00:52:14;;;;;;;1.52;1.00;;;;;;;;;;6258422;23;20023;-96
2022/02/02 00:55:06;;;;;;;3.42;1.77;;;;;;;;;;6258103;23;20008;-96
2022/02/02 00:57:34;;;;;;;1.63;1.10;;;;;;;;;;6260469;23;20008;-96
2022/02/02 01:00:10;;;;;;;1.98;1.10;;;;;;;;;;6257412;23;20009;-96
2022/02/02 01:02:46;;;;;;;1.23;0.90;;;;;;;;;;6258333;23;20435;-96
2022/02/02 01:05:17;;;;;;;1.60;1.33;;;;;;;;;;6259139;23;20001;-96
2022/02/02 01:10:42;;;;;;;2.08;1.00;;;;;;;;;;6196292;23;20004;-96
2022/02/02 01:13:54;;;;;;;0.60;0.60;;;;;;;;;;6195387;23;20013;-96
2022/02/02 01:17:11;;;;;;;0.93;0.70;;;;;;;;;;6194489;23;20009;-96
2022/02/02 01:19:44;;;;;;;0.65;0.65;;;;;;;;;;6195575;23;20017;-96
2022/02/02 01:29:54;;;;;;;1.63;1.48;;;;;;;;;;6194044;23;20015;-96
2022/02/02 01:32:20;;;;;;;1.98;1.25;;;;;;;;;;6195002;23;20036;-96
2022/02/02 01:34:48;;;;;;;4.35;1.58;;;;;;;;;;6193852;23;20016;-96
2022/02/02 01:37:21;;;;;;;2.08;1.58;;;;;;;;;;6167900;23;20016;-96
2022/02/02 01:40:06;;;;;;;2.03;1.63;;;;;;;;;;6194324;23;20013;-96
2022/02/02 01:42:42;;;;;;;2.28;1.45;;;;;;;;;;6194755;23;20005;-96
2022/02/02 01:45:17;;;;;;;2.17;1.20;;;;;;;;;;6195136;23;20100;-96
2022/02/02 01:50:51;;;;;;;1.45;0.63;;;;;;;;;;6257637;23;20054;-96
2022/02/02 01:53:31;;;;;;;1.35;0.90;;;;;;;;;;6259880;23;20086;-96
2022/02/02 01:55:59;;;;;;;1.23;1.13;;;;;;;;;;6258300;23;20079;-96
2022/02/02 01:58:57;;;;;;;1.70;1.08;;;;;;;;;;6256003;23;20012;-96
2022/02/02 02:01:24;;;;;;;1.42;1.05;;;;;;;;;;6229912;23;20020;-96
2022/02/02 02:03:58;;;;;;;1.65;0.85;;;;;;;;;;6255816;23;20000;-96
2022/02/02 02:06:31;;;;;;;0.50;0.50;;;;;;;;;;6228766;23;20463;-96
2022/02/02 02:08:58;;;;;;;1.45;1.10;;;;;;;;;;6257262;23;20012;-96
2022/02/02 02:11:29;;;;;;;3.67;2.42;;;;;;;;;;6255698;23;20000;-96
2022/02/02 02:16:22;;;;;;;4.15;1.33;;;;;;;;;;6258660;23;20012;-96
2022/02/02 02:18:49;;;;;;;1.33;0.90;;;;;;;;;;6232145;23;20008;-96
2022/02/02 02:21:17;;;;;;;2.85;1.40;;;;;;;;;;6230912;23;20004;-96
2022/02/02 02:24:00;;;;;;;7.35;2.85;;;;;;;;;;6231248;23;20008;-96
2022/02/02 02:26:46;;;;;;;6.45;1.95;;;;;;;;;;6259049;22;20015;-96
2022/02/02 02:29:43;;;;;;;2.33;1.50;;;;;;;;;;6262886;23;20026;-96
2022/02/02 02:55:46;;;;;;;1.10;1.00;;;;;;;;;;6258948;23;20446;-96
2022/02/02 02:58:00;;;;;;;3.30;1.98;;;;;;;;;;6257879;23;20019;-96
2022/02/02 03:00:50;;;;;;;2.28;1.20;;;;;;;;;;6260987;23;20004;-96
2022/02/02 04:07:04;;;;;;;2.10;1.98;;;;;;;;;;6253582;23;20367;-96
2022/02/02 04:09:34;;;;;;;2.92;1.25;;;;;;;;;;6226803;23;20444;-95
2022/02/02 04:12:26;;;;;;;3.15;1.40;;;;;;;;;;6256368;23;20000;-96
2022/02/02 04:51:27;;;;;;;2.67;1.83;;;;;;;;;;6105369;23;20105;-96
2022/02/02 05:02:04;;;;;;;3.75;1.08;;;;;;;;;;6184232;23;20051;-96
2022/02/02 05:43:13;;;;;;;2.03;0.70;;;;;;;;;;6044267;23;20462;-96
2022/02/02 05:51:13;;;;;;;2.40;1.73;;;;;;;;;;6130901;23;20013;-95
2022/02/02 05:53:39;;;;;;;1.00;0.80;;;;;;;;;;6132192;23;20006;-96
2022/02/02 05:56:14;;;;;;;0.82;0.75;;;;;;;;;;6130090;23;20013;-96
2022/02/02 05:58:40;;;;;;;1.50;1.08;;;;;;;;;;6137350;23;20093;-96
2022/02/02 06:01:07;;;;;;;2.60;0.73;;;;;;;;;;6252384;23;20006;-96
2022/02/02 06:03:52;;;;;;;0.82;0.82;;;;;;;;;;6224490;23;20008;-96
2022/02/02 06:06:20;;;;;;;1.25;0.55;;;;;;;;;;6251593;23;20016;-95
2022/02/02 06:08:47;;;;;;;0.85;0.80;;;;;;;;;;6253135;23;20005;-96
2022/02/02 06:11:15;;;;;;;1.55;0.75;;;;;;;;;;6224077;23;20000;-96
2022/02/02 06:13:45;;;;;;;1.38;1.10;;;;;;;;;;6250527;23;20022;-96
2022/02/02 06:16:11;;;;;;;1.17;1.08;;;;;;;;;;6250429;23;20008;-96
2022/02/02 06:18:38;;;;;;;1.65;1.05;;;;;;;;;;6250626;23;20068;-96
2022/02/02 06:21:06;;;;;;;0.65;0.65;;;;;;;;;;6244333;23;20106;-95
2022/02/02 06:23:34;;;;;;;1.23;1.10;;;;;;;;;;6244762;23;20027;-94
2022/02/02 06:26:02;;;;;;;1.17;0.95;;;;;;;;;;6245094;23;20069;-95
2022/02/02 06:28:33;;;;;;;0.93;0.80;;;;;;;;;;6244311;23;20004;-94
2022/02/02 06:31:03;;;;;;;2.05;1.10;;;;;;;;;;6217918;23;20004;-93
2022/02/02 06:33:33;;;;;;;1.23;0.80;;;;;;;;;;6243062;23;20008;-95
2022/02/02 06:36:00;;;;;;;2.13;1.15;;;;;;;;;;6243915;23;20435;-95
2022/02/02 06:38:26;;;;;;;2.33;1.35;;;;;;;;;;6243635;23;20008;-94
2022/02/02 06:40:52;;;;;;;0.70;0.70;;;;;;;;;;6216799;23;20008;-94
2022/02/02 06:43:19;;;;;;;4.03;1.02;;;;;;;;;;6244155;23;20163;-95
2022/02/02 06:45:46;;;;;;;1.93;1.13;;;;;;;;;;6244451;23;20035;-93
2022/02/02 06:48:12;;;;;;;1.65;1.40;;;;;;;;;;6217544;23;20689;-92
2022/02/02 06:50:45;;;;;;;2.03;1.00;;;;;;;;;;6249671;23;19996;-95
2022/02/02 06:56:50;;;;;;;1.75;0.70;;;;;;;;;;6122814;23;20006;-96
2022/02/02 07:04:53;;;;;;;1.30;0.95;;;;;;;;;;6115511;23;19901;-95
2022/02/02 07:12:50;;;;;;;1.25;1.10;;;;;;;;;;6121021;23;20025;-96
2022/02/02 07:15:31;;;;;;;1.13;0.73;;;;;;;;;;6122856;23;20006;-96
2022/02/02 07:31:04;;;;;;;2.90;1.15;;;;;;;;;;6123725;23;20104;-95
2022/02/02 07:33:36;;;;;;;2.20;1.08;;;;;;;;;;6173702;23;20012;-94
2022/02/02 07:36:16;;;;;;;2.45;1.33;;;;;;;;;;6218278;23;20015;-95
2022/02/02 07:38:48;;;;;;;4.10;1.63;;;;;;;;;;6216032;23;20528;-93
2022/02/02 07:41:24;;;;;;;5.15;2.70;;;;;;;;;;6211856;23;20004;-91
2022/02/02 07:43:52;;;;;;;4.25;2.20;;;;;;;;;;6240500;23;20004;-93
2022/02/02 07:46:25;;;;;;;4.28;1.95;;;;;;;;;;6243291;23;20005;-95
2022/02/02 07:49:28;;;;;;;2.05;1.77;;;;;;;;;;6217255;23;20503;-96
2022/02/02 07:51:54;;;;;;;2.58;1.90;;;;;;;;;;6222567;23;20083;-96
2022/02/02 07:54:33;;;;;;;2.40;1.58;;;;;;;;;;6221889;23;20008;-96
2022/02/02 07:57:13;;;;;;;6.85;2.67;;;;;;;;;;6250258;23;20138;-96
2022/02/02 08:03:05;;;;;;;1.08;0.98;;;;;;;;;;6185954;23;20673;-95
2022/02/02 08:06:31;;;;;;;4.25;1.67;;;;;;;;;;6186321;23;20017;-96
2022/02/02 08:08:52;;;;;;;2.80;1.67;;;;;;;;;;6182844;23;20021;-95
2022/02/02 08:11:26;;;;;;;;;;;8.40;99.90;;;;;;6157326;23;20096;-95
2022/02/02 08:17:08;;;;;;;1.73;1.60;;;;;;;;;;6154018;23;20014;-96
2022/02/02 08:19:34;;;;;;;7.15;3.05;;;;;;;;;;6150046;23;20021;-93
2022/02/02 08:22:03;;;;;;;6.93;2.58;;;;;;;;;;6150187;23;20433;-95
2022/02/02 08:24:29;;;;;;;7.40;3.40;;;;;;;;;;6126894;23;20084;-94
2022/02/02 08:26:58;;;;;;;1.55;1.45;;;;;;;;;;6127104;23;20012;-95
2022/02/02 08:29:26;;;;;;;1.17;1.13;;;;;;;;;;6150567;23;20013;-94
2022/02/02 08:31:55;;;;;;;1.70;1.38;;;;;;;;;;6124715;23;20048;-95
2022/02/02 08:34:24;;;;;;;1.50;1.40;;;;;;;;;;6126544;23;20009;-95
2022/02/02 08:36:54;;;;;;;0.75;0.70;;;;;;;;;;6151475;23;20013;-94
2022/02/02 08:42:01;;;;;;;1.80;0.88;;;;;;;;;;6178674;23;20009;-94
2022/02/02 08:44:28;;;;;;;0.90;0.70;;;;;;;;;;6156499;23;20044;-93
2022/02/02 08:47:06;;;;;;;0.70;0.70;;;;;;;;;;6178267;23;20005;-95
2022/02/02 08:49:37;;;;;;;1.70;1.00;;;;;;;;;;6155199;23;20040;-91
2022/02/02 08:52:04;;;;;;;1.83;1.33;;;;;;;;;;6184913;23;20001;-91
2022/02/02 08:54:45;;;;;;;2.28;1.35;;;;;;;;;;6213974;23;20026;-92
2022/02/02 08:57:24;;;;;;;2.13;1.40;;;;;;;;;;6186616;23;19996;-91
2022/02/02 09:00:11;;;;;;;0.68;0.68;;;;;;;;;;6210262;23;20074;-91
2022/02/02 09:02:41;;;;;;;1.08;0.73;;;;;;;;;;6185429;23;20451;-91
2022/02/02 09:05:28;;;;;;;0.85;0.85;;;;;;;;;;6212983;23;20698;-92
2022/02/02 09:07:57;;;;;;;0.98;0.88;;;;;;;;;;6231034;23;20016;-94
2022/02/02 09:20:02;;;;;;;1.77;1.20;;;;;;;;;;6213361;23;20079;-96
2022/02/02 09:24:21;;;;;;;1.35;1.00;;;;;;;;;;6120600;23;20430;-93
2022/02/02 09:32:54;;;;;;;6.47;1.38;;;;;;;;;;6120354;23;20097;-94
2022/02/02 09:35:22;;;;;;;2.55;2.40;;;;;;;;;;6121399;23;20041;-94
2022/02/02 09:37:52;;;;;;;3.03;1.27;;;;;;;;;;6121205;23;20005;-92
2022/02/02 09:43:06;;;;;;;0.53;0.53;;;;;;;;;;6034071;23;20447;-91
2022/02/02 09:45:33;;;;;;;3.50;0.75;;;;;;;;;;6034661;23;20070;-92
2022/02/02 09:48:09;;;;;;;0.40;0.40;;;;;;;;;;6033713;23;20000;-92
2022/02/02 09:50:42;;;;;;;0.50;0.50;;;;;;;;;;6030045;23;20404;-89
2022/02/02 09:53:10;;;;;;;0.50;0.50;;;;;;;;;;6096790;23;20008;-91
2022/02/02 10:01:39;;;;;;;0.50;0.50;;;;;;;;;;6088135;23;20020;-93
2022/02/02 10:07:22;;;;;;;0.40;0.40;;;;;;;;;;6092004;23;20153;-91
2022/02/02 10:15:29;;;;;;;0.32;0.32;;;;;;;;;;6004923;23;19909;-89
2022/02/02 10:17:59;;;;;;;0.50;0.40;;;;;;;;;;6004301;23;20007;-88
2022/02/02 10:20:27;;;;;;;1.65;0.52;;;;;;;;;;5972136;23;20111;-88
2022/02/02 10:22:58;;;;;;;1.20;0.40;;;;;;;;;;5977583;24;20004;-91
2022/02/02 10:25:25;;;;;;;0.88;0.65;;;;;;;;;;5978140;24;20073;-91
2022/02/02 10:27:51;;;;;;;0.30;0.30;;;;;;;;;;5978582;24;20008;-91
2022/02/02 10:30:20;;;;;;;0.30;0.30;;;;;;;;;;5974508;24;20495;-93
2022/02/02 10:32:47;;;;;;;0.40;0.40;;;;;;;;;;5977449;24;20011;-92
2022/02/02 10:35:30;;;;;;;0.40;0.40;;;;;;;;;;5978241;24;20008;-90
2022/02/02 10:37:58;;;;;;;0.40;0.40;;;;;;;;;;6025195;23;20006;-91
2022/02/02 10:40:43;;;;;;;0.40;0.40;;;;;;;;;;6087182;23;20010;-94
2022/02/02 10:43:22;;;;;;;0.40;0.40;;;;;;;;;;6091269;23;20012;-89
2022/02/02 10:45:48;;;;;;;0.90;0.47;;;;;;;;;;6083142;23;20042;-90
2022/02/02 10:48:24;;;;;;;0.50;0.50;;;;;;;;;;6158794;23;20058;-89
2022/02/02 10:51:04;;;;;;;0.60;0.50;;;10.40;99.70;;;;;;6212333;23;20004;-90
2022/02/02 11:01:45;;;;;;;1.00;0.70;;;;;;;;;;6176411;23;20117;-92
2022/02/02 11:06:56;;;;;;;0.40;0.40;;;;;;;;;;6179685;23;20372;-92
2022/02/02 11:09:22;;;;;;;2.10;1.08;;;;;;;;;;6178524;23;20010;-92
2022/02/02 11:11:49;;;;;;;1.40;1.30;;;;;;;;;;6177839;23;20001;-90
2022/02/02 11:14:29;;;;;;;3.88;2.03;;;;;;;;;;6155005;23;20607;-91
2022/02/02 11:17:13;;;;;;;1.60;1.48;;;;;;;;;;6153642;23;20095;-92
2022/02/02 11:19:40;;;;;;;1.88;1.30;;;;;;;;;;6190229;23;20096;-91
2022/02/02 11:22:35;;;;;;;4.30;3.00;;;;;;;;;;6177384;23;20012;-91
2022/02/02 11:25:04;;;;;;;13.80;6.43;;;;;;;;;;6161069;23;20215;-92
2022/02/02 11:27:43;;;;;;;3.58;2.22;;;;;;;;;;6179314;23;20009;-92
2022/02/02 11:30:24;;;;;;;1.05;0.93;;;;;;;;;;6152362;23;20301;-91
2022/02/02 11:33:01;;;;;;;3.15;1.90;;;;;;;;;;6187196;23;20006;-91
2022/02/02 11:35:36;;;;;;;2.45;1.70;;;;;;;;;;6217954;23;20463;-91
2022/02/02 11:38:05;;;;;;;0.88;0.85;;;;;;;;;;6217290;23;20008;-90
2022/02/02 11:40:35;;;;;;;2.20;1.75;;;;;;;;;;6213730;23;20043;-91
2022/02/02 11:43:12;;;;;;;6.20;2.00;;;;;;;;;;6244683;23;20074;-91
2022/02/02 11:46:01;;;;;;;3.20;1.87;;;;;;;;;;6244267;23;20004;-92
2022/02/02 11:48:51;;;;;;;1.20;1.10;;;;;;;;;;6244537;23;20000;-91
2022/02/02 11:51:35;;;;;;;14.07;7.25;;;;;;;;;;6240465;23;20083;-91
2022/02/02 11:54:01;;;;;;;6.68;1.85;;;;;;;;;;6218031;23;20008;-90
2022/02/02 11:56:30;;;;;;;2.15;1.25;;;;;;;;;;6217687;23;20020;-92
2022/02/02 11:58:57;;;;;;;1.23;0.93;;;;;;;;;;6217884;23;20019;-91
2022/02/02 12:01:44;;;;;;;0.97;0.90;;;;;;;;;;6213187;23;20008;-91
2022/02/02 12:04:40;;;;;;;1.88;1.65;;;;;;;;;;6244960;23;20071;-91
2022/02/02 12:07:16;;;;;;;0.70;0.70;;;;;;;;;;6216689;23;20016;-92
2022/02/02 12:09:57;;;;;;;1.33;1.10;;;;;;;;;;6215341;23;20239;-91
2022/02/02 12:46:24;;;;;;;0.47;0.47;;;;;;;;;;6092157;23;20513;-92
2022/02/02 12:56:44;;;;;;;0.52;0.52;;;;;;;;;;6151234;23;20009;-91
2022/02/02 12:59:39;;;;;;;0.43;0.43;;;;;;;;;;6150220;23;20017;-92
2022/02/02 13:02:07;;;;;;;0.70;0.50;;;;;;;;;;6147896;23;20045;-93
2022/02/02 13:04:33;;;;;;;;;;;;;;;;;;6217842;23;20090;-92
2022/02/02 13:07:34;;;;;;;1.27;0.65;;;;;;;;;;6242529;23;19904;-94
2022/02/02 13:10:03;;;;;;;4.22;0.65;;;;;;;;;;6147320;23;20001;-91
2022/02/02 13:12:41;;;;;;;1.27;0.50;;;;;;;;;;6151206;23;20096;-93
2022/02/02 13:17:51;;;;;;;0.68;0.68;;;;;;;;;;6151536;23;20010;-93
2022/02/02 13:20:33;;;;;;;0.40;0.40;;;;;;;;;;6146840;23;20081;-93
2022/02/02 13:23:32;;;;;;;0.60;0.55;;;;;;;;;;6150517;23;20037;-89
2022/02/02 13:25:56;;;;;;;0.47;0.47;;;;;;;;;;6151087;23;20037;-90
2022/02/02 13:28:46;;;;;;;0.80;0.70;;;;;;;;;;6150650;23;20018;-90
2022/02/02 13:31:25;;;;;;;1.00;0.70;;;;;;;;;;6145439;23;20013;-91
2022/02/02 13:34:02;;;;;;;1.67;0.90;;;;;;;;;;6150335;23;20006;-91
2022/02/02 13:36:44;;;;;;;;;;;;;;;;;;6151558;23;20034;-91
2022/02/02 13:42:33;;;;;;;0.63;0.63;;;;;;;;;;6149302;23;19908;-93
2022/02/02 13:42:55;;;;;;;1.35;0.80;;;;;;;;;;6148308;23;20601;-90
2022/02/02 13:47:58;;;;;;;2.10;1.33;;;;;;;;;;6243698;23;20004;-90
2022/02/02 13:53:08;;;;;;;0.90;0.77;;;;;;;;;;6243720;23;20016;-92
2022/02/02 13:55:49;;;;;;;1.00;0.90;;;;;;;;;;6244150;23;20000;-93
2022/02/02 14:01:48;;;;;;;1.25;1.15;;;;;;;;;;6237066;23;20039;-90
2022/02/02 14:04:13;;;;;;;1.25;0.70;;;;;;;;;;6233880;22;20442;-90
2022/02/02 14:33:22;;;;;;;0.43;0.43;;;;;;;;;;6242155;23;20023;-90
2022/02/02 14:35:49;;;;;;;0.40;0.40;;;;;;;;;;6215323;23;20090;-90
2022/02/02 14:38:17;;;;;;;0.40;0.40;;;;;;;;;;6243170;23;20008;-91
2022/02/02 14:43:45;;;;;;;3.47;0.93;;;;;;;;;;6241975;23;20014;-92
2022/02/02 14:46:21;;;;;;;4.95;1.48;;;;;;;;;;6215673;23;20008;-94
2022/02/02 14:49:10;;;;;;;19.10;5.93;;;;;;;;;;6213458;23;20435;-89
2022/02/02 14:51:58;;;;;;;8.57;3.28;;;;;;;;;;6236000;23;20004;-90
2022/02/02 15:29:25;;;;;;;0.60;0.50;;;;;;;;;;6181527;23;20012;-91
2022/02/02 15:31:51;;;;;;;1.17;0.63;;;;;;;;;;6152724;23;20013;-91
2022/02/02 15:34:26;;;;;;;0.40;0.40;;;;;;;;;;6217938;23;20507;-93
2022/02/02 15:39:23;;;;;;;5.35;2.17;;;;;;;;;;6244502;23;20805;-95
2022/02/02 15:55:32;;;;;;;1.20;1.10;;;;;;;;;;6244290;23;20057;-92
2022/02/02 16:03:04;;;;;;;0.60;0.60;;;;;;;;;;6244543;23;20004;-93
2022/02/02 16:05:40;;;;;;;1.00;0.85;;;;;;;;;;6243494;23;20011;-92
2022/02/02 16:08:08;;;;;;;0.98;0.90;;;;;;;;;;6217253;23;20012;-93
2022/02/02 16:11:05;;;;;;;0.73;0.73;;;;;;;;;;6213176;23;20015;-93
2022/02/02 16:13:45;;;;;;;4.47;0.60;;;;;;;;;;6241990;23;20004;-93
2022/02/02 16:18:51;;;;;;;0.47;0.47;;;;;;;;;;6243894;23;20470;-95
2022/02/02 16:35:00;;;;;;;5.65;1.63;;;;;;;;;;6243607;23;20062;-91
2022/02/02 16:37:31;;;;;;;1.02;0.80;;;;;;;;;;6244664;23;20325;-91
2022/02/02 16:39:59;;;;;;;0.57;0.57;;;;;;;;;;6241784;23;20016;-93
2022/02/02 16:45:11;;;;;;;0.50;0.50;;;;;;;;;;6244238;23;20023;-92
2022/02/02 16:47:37;;;;;;;1.20;0.90;;;;;;;;;;6243825;23;20032;-91
2022/02/02 16:50:04;;;;;;;1.13;1.02;;;;;;;;;;6214552;23;20012;-92
2022/02/02 16:52:32;;;;;;;0.98;0.73;;;;;;;;;;6215591;23;20004;-95
2022/02/02 16:55:02;;;;;;;0.70;0.50;;;;;;;;;;6243607;23;20012;-93
2022/02/02 16:58:19;;;;;;;1.35;0.70;;;;;;;;;;6244640;23;20000;-94
2022/02/02 17:42:03;;;;;;;4.13;2.03;;;;;;;;;;6157073;23;20407;-94
2022/02/02 18:03:29;;;;;;;1.27;0.88;;;;;;;;;;6179596;23;20041;-94
2022/02/02 18:19:14;;;;;;;5.15;2.60;;;;;;;;;;6242158;23;20027;-94
2022/02/02 18:21:40;;;;;;;2.47;2.20;;;;;;;;;;6237585;23;20000;-92
2022/02/02 18:24:20;;;;;;;2.22;1.90;;;;;;;;;;6216040;23;20828;-93
2022/02/02 18:26:53;;;;;;;1.58;1.45;;;;;;;;;;6242434;23;20000;-94
2022/02/02 18:37:21;;;;;;;1.77;1.33;;;;;;;;;;6242297;23;20004;-93
2022/02/02 18:48:17;;;;;;;4.20;2.08;;;;;;;;;;6241768;23;20042;-93
2022/02/02 18:55:59;;;;;;;2.00;1.50;;;;;;;;;;6242693;23;20008;-95
2022/02/02 20:06:42;;;;;;;3.20;2.08;;;;;;;;;;6246033;23;20016;-96
2022/02/02 20:10:00;;;;;;;2.95;2.42;;;;;;;;;;6243533;23;20012;-95
2022/02/02 20:12:01;;;;;;;2.07;1.57;;;;;;;;;;6231147;22;20006;-95
2022/02/02 20:14:27;;;;;;;3.20;1.80;;;;;;;;;;6245069;23;20360;-95
2022/02/02 20:16:56;;;;;;;3.25;1.65;;;;;;;;;;6218161;23;20008;-96
2022/02/02 20:19:22;;;;;;;2.00;1.75;;;;;;;;;;6243301;23;20019;-96
2022/02/02 20:22:20;;;;;;;1.73;1.23;;;;;;;;;;6215614;23;20004;-94
2022/02/02 20:25:02;;;;;;;1.42;0.95;;;;;;;;;;6245350;23;20000;-96
2022/02/02 20:27:37;;;;;;;9.07;2.53;;;;;;;;;;6246102;23;20008;-95
2022/02/02 20:30:05;;;;;;;3.38;2.30;;;;;;;;;;6242842;22;20087;-96
2022/02/02 20:32:31;;;;;;;3.42;2.25;;;;;;;;;;6242992;23;20008;-96
2022/02/02 20:35:00;;;;;;;7.32;4.45;;;;;;;;;;6244964;23;20000;-95
2022/02/02 20:37:28;;;;;;;11.38;5.95;;;;;;;;;;6245639;23;20091;-95
2022/02/02 20:40:04;;;;;;;;;;;6.70;98.50;;;;;;6245287;23;20019;-96
2022/02/02 21:07:34;;;;;;;4.25;2.67;;;;;;;;;;6244863;23;20371;-96
2022/02/02 21:10:12;;;;;;;5.33;2.57;;;;;;;;;;6243372;22;20046;-95
2022/02/02 21:15:32;;;;;;;6.03;1.95;;;;;;;;;;6244979;23;20031;-96
2022/02/02 21:18:06;;;;;;;3.35;2.25;;;;;;;;;;6246581;23;20028;-96
2022/02/02 21:20:40;;;;;;;8.88;2.28;;;;;;;;;;6242718;23;20196;-96
2022/02/02 21:28:37;;;;;;;6.32;3.13;;;;;;;;;;6245962;23;20015;-96
2022/02/02 21:31:04;;;;;;;12.35;3.78;;;;;;;;;;6214682;23;20008;-96
2022/02/02 21:33:36;;;;;;;8.65;3.85;;;;;;;;;;6218469;23;20000;-96
2022/02/02 21:36:09;;;;;;;7.13;3.47;;;;;;;;;;6241907;23;20004;-96
2022/02/02 21:41:34;;;;;;;;;;;;;;;;;;6242548;23;20371;-96
2022/02/02 21:44:04;;;;;;;3.65;2.03;;;;;;;;;;6211885;23;19907;-96
2022/02/02 21:46:57;;;;;;;4.43;2.25;;;;;;;;;;6246338;23;20003;-96
2022/02/02 21:49:27;;;;;;;8.23;3.65;;;;;;;;;;6233296;23;20004;-96
2022/02/02 21:54:28;;;;;;;13.65;4.07;;;;;;;;;;6247809;23;20016;-96
2022/02/02 21:56:58;;;;;;;8.95;3.80;;;;;;;;;;6220268;23;20004;-96
2022/02/02 21:59:59;;;;;;;10.63;4.68;;;;;;;;;;6246890;23;20119;-96
2022/02/02 22:02:40;;;;;;;6.57;4.18;;;;;;;;;;6229227;22;20443;-96
2022/02/02 22:05:08;;;;;;;12.65;5.53;;;;;;;;;;6247815;23;20079;-96
2022/02/02 22:07:34;;;;;;;5.90;2.08;;;;;;;;;;6219585;23;20066;-96
2022/02/02 22:10:06;;;;;;;25.23;9.40;;;;;;;;;;6246093;23;20496;-96
2022/02/02 22:12:39;;;;;;;28.92;12.07;;;;;;;;;;6218556;23;20095;-96
2022/02/02 22:15:14;;;;;;;7.68;3.83;;;;;;;;;;6218355;23;20008;-95
2022/02/02 22:17:50;;;;;;;9.70;5.57;;;;;;;;;;6245565;23;20511;-96
2022/02/02 22:20:19;;;;;;;13.18;5.50;;;;;;;;;;6244946;23;20012;-96
2022/02/02 22:22:52;;;;;;;11.20;4.80;;;;;;;;;;6219465;23;20027;-96
2022/02/02 22:25:24;;;;;;;9.60;4.03;;;;;;;;;;6248437;23;20007;-96
2022/02/02 22:27:53;;;;;;;4.10;2.85;;;;;;;;;;6244760;23;20004;-95
2022/02/02 22:30:19;;;;;;;6.85;3.97;;;;;;;;;;6219487;23;20008;-96
2022/02/02 22:32:45;;;;;;;8.88;3.92;;;;;;;;;;6220343;23;20031;-96
2022/02/02 22:35:11;;;;;;;13.02;4.50;;;;;;;;;;6248961;23;20431;-96
2022/02/02 22:37:40;;;;;;;7.25;3.45;;;;;;;;;;6220929;23;20012;-96
2022/02/02 22:40:07;;;;;;;7.10;3.88;;;;;;;;;;6246219;23;20452;-96
2022/02/02 22:42:40;;;;;;;8.43;3.95;;;;;;;;;;6220668;23;20031;-96
2022/02/02 22:45:09;;;;;;;6.50;2.90;;;;;;;;;;6249273;23;20012;-96
2022/02/02 22:47:36;;;;;;;5.00;2.90;;;;;;;;;;6218529;23;20007;-96
2022/02/02 22:50:05;;;;;;;4.55;2.58;;;;;;;;;;6243579;23;20012;-96
2022/02/02 22:55:36;;;;;;;3.97;1.92;;;;;;;;;;6154869;23;20010;-96
2022/02/02 22:58:09;;;;;;;5.32;3.72;;;;;;;;;;6155313;23;20006;-96
2022/02/02 23:04:28;;;;;;;8.05;4.32;;;;;;;;;;6067479;23;20085;-96
2022/02/02 23:06:29;;;;;;;3.22;2.78;;;;;;;;;;6056389;23;20044;-96
2022/02/02 23:08:59;;;;;;;9.80;3.47;;;;;;;;;;6068108;23;20114;-96
2022/02/02 23:11:32;;;;;;;8.15;5.18;;;;;;;;;;6065997;23;20025;-96
2022/02/02 23:14:04;;;;;;;9.80;3.97;;;;;;;;;;6068210;23;20014;-96
2022/02/02 23:16:45;;;;;;;3.17;2.90;;;;;;;;;;6069522;23;20003;-96
2022/02/02 23:19:19;;;;;;;5.20;3.47;;;;;;;;;;6067263;23;20074;-96
2022/02/02 23:21:53;;;;;;;15.10;3.92;;;;;;;;;;6066422;23;20013;-96
2022/02/02 23:24:28;;;;;;;6.20;2.67;;;;;;;;;;6069597;23;20557;-96
2022/02/02 23:26:54;;;;;;;5.03;3.22;;;;;;;;;;6068960;23;20002;-96
2022/02/02 23:29:29;;;;;;;6.32;3.10;;;;;;;;;;6068220;23;20011;-96
2022/02/02 23:31:58;;;;;;;6.53;3.42;;;;;;;;;;6073820;23;20009;-96
2022/02/02 23:34:31;;;;;;;6.07;2.72;;;;;;;;;;6097720;23;20011;-96
2022/02/02 23:37:04;;;;;;;3.17;2.55;;;;;;;;;;6097182;23;20011;-96
2022/02/02 23:39:30;;;;;;;3.92;2.83;;;;;;;;;;6107280;23;20041;-96
2022/02/02 23:47:40;;;;;;;3.97;2.03;;;;;;;;;;6156044;23;20009;-96
2022/02/02 23:50:19;;;;;;;7.43;3.22;;;;;;;;;;6130362;23;20059;-96
2022/02/02 23:53:09;;;;;;;7.10;2.92;;;;;;;;;;6130335;23;20037;-96
2022/02/02 23:55:41;;;;;;;13.00;2.50;;;;;;;;;;6126233;23;20006;-95
2022/02/02 23:58:34;;;;;;;5.35;2.38;;;;;;;;;;6125850;23;20013;-96
